Time;durP1;ratioP1;P1;durP2;ratioP2;P2;SDS_P1;SDS_P2;PMS_P1;PMS_P2;Temp;Humidity;BMP_temperature;BMP_pressure;BME280_temperature;BME280_humidity;BME280_pressure;Samples;Min_cycle;Max_cycle;Signal;HPM_P1;HPM_P2
2021/01/07 07:40:36;;;;;;;7.72;3.03;;;12.80;99.90;;;;;;4478881;30;20410;-78
2021/01/07 07:43:05;;;;;;;3.13;2.35;;;12.80;99.90;;;;;;4709106;30;20036;-79
2021/01/07 07:45:47;;;;;;;10.45;2.35;;;12.80;99.90;;;;;;4706917;30;20104;-78
2021/01/07 07:48:27;;;;;;;15.88;2.88;;;12.80;99.90;;;;;;4710336;30;20042;-79
2021/01/07 07:51:13;;;;;;;7.90;2.88;;;12.90;99.90;;;;;;4709952;30;20112;-79
2021/01/07 07:53:51;;;;;;;12.90;3.75;;;12.90;99.90;;;;;;4706802;30;20049;-78
2021/01/07 07:56:25;;;;;;;22.80;4.30;;;12.80;99.90;;;;;;4711085;30;20032;-78
2021/01/07 07:59:02;;;;;;;10.73;3.17;;;12.90;99.90;;;;;;4705396;30;20119;-79
2021/01/07 08:01:42;;;;;;;24.30;5.32;;;12.90;99.90;;;;;;4710752;30;20498;-78
2021/01/07 08:04:14;;;;;;;35.33;5.93;;;13.10;99.90;;;;;;4708076;30;20063;-78
2021/01/07 08:06:40;;;;;;;26.52;5.45;;;13.20;99.90;;;;;;4706964;30;20037;-78
2021/01/07 08:09:09;;;;;;;25.83;3.78;;;13.30;99.90;;;;;;4711851;30;20025;-78
2021/01/07 08:11:45;;;;;;;5.07;1.83;;;13.50;99.90;;;;;;4707355;30;20452;-78
2021/01/07 08:14:21;;;;;;;4.75;1.33;;;13.50;99.90;;;;;;4711086;30;20068;-78
2021/01/07 08:16:49;;;;;;;5.50;1.88;;;13.70;99.90;;;;;;4711635;30;20041;-78
2021/01/07 08:19:17;;;;;;;5.93;1.30;;;13.80;99.90;;;;;;4694966;30;20047;-79
2021/01/07 08:21:46;;;;;;;5.80;1.55;;;13.90;99.90;;;;;;4695373;30;20373;-78
2021/01/07 08:24:13;;;;;;;5.30;1.40;;;14.10;99.90;;;;;;4705939;30;20660;-78
2021/01/07 08:26:44;;;;;;;2.63;1.05;;;14.20;99.90;;;;;;4707469;30;20080;-78
2021/01/07 08:29:22;;;;;;;4.28;1.77;;;14.30;99.90;;;;;;4719081;30;20037;-78
2021/01/07 08:31:52;;;;;;;3.10;0.90;;;14.40;99.90;;;;;;4713124;30;20048;-78
2021/01/07 08:34:19;;;;;;;3.13;1.30;;;14.40;99.90;;;;;;4707793;30;20384;-78
2021/01/07 08:36:46;;;;;;;8.98;2.00;;;14.50;99.90;;;;;;4706520;30;20069;-78
2021/01/07 08:39:16;;;;;;;4.03;1.00;;;14.50;99.90;;;;;;4723003;30;20099;-77
2021/01/07 08:41:44;;;;;;;2.65;1.33;;;14.60;99.90;;;;;;4703325;30;20081;-79
2021/01/07 08:44:11;;;;;;;2.50;1.20;;;14.60;99.90;;;;;;4708428;30;20383;-78
2021/01/07 08:46:42;;;;;;;5.38;1.45;;;14.80;99.90;;;;;;4728713;30;20435;-79
2021/01/07 08:49:18;;;;;;;2.88;1.00;;;14.80;99.90;;;;;;4710957;30;20115;-79
2021/01/07 08:51:47;;;;;;;7.35;2.03;;;14.90;99.90;;;;;;4704794;30;20037;-80
2021/01/07 08:54:15;;;;;;;3.72;1.50;;;15.00;99.90;;;;;;4706315;30;20052;-77
2021/01/07 08:56:47;;;;;;;13.13;2.20;;;15.00;99.90;;;;;;4708295;30;20068;-78
2021/01/07 08:59:23;;;;;;;4.82;1.52;;;15.10;99.90;;;;;;4708709;30;20029;-78
2021/01/07 09:02:01;;;;;;;4.13;1.27;;;15.20;99.90;;;;;;4707334;30;20388;-78
2021/01/07 09:04:31;;;;;;;5.10;1.48;;;15.30;99.90;;;;;;4709266;30;20037;-79
2021/01/07 09:06:58;;;;;;;3.42;1.33;;;15.30;99.90;;;;;;4720624;30;20033;-78
2021/01/07 09:09:27;;;;;;;4.53;1.90;;;15.40;99.90;;;;;;4721136;30;20045;-79
2021/01/07 09:12:12;;;;;;;7.93;2.08;;;15.40;99.90;;;;;;4712888;30;20066;-78
2021/01/07 09:14:47;;;;;;;3.45;1.55;;;15.40;99.90;;;;;;4704334;30;20037;-78
2021/01/07 09:17:14;;;;;;;3.22;1.05;;;15.40;99.90;;;;;;4705012;30;20048;-78
2021/01/07 09:19:42;;;;;;;14.50;2.05;;;15.40;99.90;;;;;;4708233;30;20068;-78
2021/01/07 09:22:08;;;;;;;5.55;1.70;;;15.40;99.90;;;;;;4709714;30;20183;-78
2021/01/07 09:24:36;;;;;;;5.13;1.58;;;15.40;99.90;;;;;;4706673;30;20483;-77
2021/01/07 09:27:06;;;;;;;6.93;2.28;;;15.40;99.90;;;;;;4705704;30;20038;-77
2021/01/07 09:29:33;;;;;;;2.33;1.02;;;15.40;99.90;;;;;;4702133;30;20076;-77
2021/01/07 09:31:59;;;;;;;6.15;1.25;;;15.40;99.90;;;;;;4704285;30;20051;-78
2021/01/07 09:34:25;;;;;;;6.80;2.55;;;15.40;99.90;;;;;;4703511;30;20498;-77
2021/01/07 09:36:51;;;;;;;3.70;1.20;;;15.30;99.90;;;;;;4731431;30;20195;-76
2021/01/07 09:39:18;;;;;;;3.75;0.90;;;15.40;99.90;;;;;;4705784;30;20080;-76
2021/01/07 09:41:44;;;;;;;2.85;0.80;;;15.30;99.90;;;;;;4708644;30;20471;-76
2021/01/07 09:44:10;;;;;;;1.38;0.73;;;15.30;99.90;;;;;;4703125;30;20398;-76
2021/01/07 09:46:36;;;;;;;5.45;1.60;;;15.20;99.90;;;;;;4709422;30;20679;-76
2021/01/07 09:49:02;;;;;;;2.53;1.00;;;15.20;99.90;;;;;;4706327;30;20038;-76
2021/01/07 09:51:28;;;;;;;2.63;0.98;;;15.20;99.90;;;;;;4710426;30;20029;-76
2021/01/07 09:53:55;;;;;;;4.63;1.70;;;15.10;99.90;;;;;;4707653;30;20038;-77
2021/01/07 09:56:21;;;;;;;5.45;1.38;;;15.10;99.90;;;;;;4704374;30;20038;-76
2021/01/07 09:58:47;;;;;;;6.38;1.02;;;15.10;99.90;;;;;;4707266;30;20049;-76
2021/01/07 10:01:17;;;;;;;4.25;1.25;;;15.00;99.90;;;;;;4706673;30;20037;-76
2021/01/07 10:03:43;;;;;;;4.05;1.88;;;15.10;99.90;;;;;;4707420;30;20045;-76
2021/01/07 10:06:10;;;;;;;4.80;1.20;;;15.00;99.90;;;;;;4707571;30;20037;-77
2021/01/07 10:08:36;;;;;;;4.72;2.17;;;15.00;99.90;;;;;;4710053;30;20036;-77
2021/01/07 10:11:02;;;;;;;5.95;1.70;;;15.10;99.90;;;;;;4712901;30;20032;-77
2021/01/07 10:13:28;;;;;;;6.45;1.50;;;15.10;99.90;;;;;;4713194;30;20037;-77
2021/01/07 10:15:54;;;;;;;5.93;1.52;;;15.10;99.90;;;;;;4711511;30;20043;-77
2021/01/07 10:18:20;;;;;;;2.45;1.10;;;15.10;99.90;;;;;;4711350;30;20087;-77
2021/01/07 10:20:47;;;;;;;3.00;1.40;;;15.10;99.90;;;;;;4704521;30;20057;-77
2021/01/07 10:23:16;;;;;;;3.35;1.60;;;15.20;99.90;;;;;;4705069;30;20521;-75
2021/01/07 10:25:46;;;;;;;2.10;0.90;;;15.20;99.90;;;;;;4705624;30;20045;-75
2021/01/07 10:28:13;;;;;;;4.93;1.20;;;15.30;99.90;;;;;;4705225;30;20041;-75
2021/01/07 10:30:40;;;;;;;4.60;1.20;;;15.30;99.90;;;;;;4706844;30;20033;-76
2021/01/07 10:33:06;;;;;;;4.30;1.10;;;15.40;99.90;;;;;;4691173;30;20039;-75
2021/01/07 10:35:38;;;;;;;4.40;1.38;;;15.40;99.90;;;;;;4706080;30;20061;-77
2021/01/07 10:38:05;;;;;;;8.75;1.83;;;15.40;99.90;;;;;;4711819;30;20117;-77
2021/01/07 10:40:34;;;;;;;5.47;2.03;;;15.40;99.90;;;;;;4712617;30;20037;-77
2021/01/07 10:43:00;;;;;;;2.95;1.23;;;15.40;99.90;;;;;;4710695;30;20037;-78
2021/01/07 10:45:27;;;;;;;7.88;2.17;;;15.40;99.90;;;;;;4706857;30;20050;-77
2021/01/07 10:47:59;;;;;;;4.85;1.35;;;15.40;99.90;;;;;;4706966;30;20450;-78
2021/01/07 10:50:28;;;;;;;3.95;1.40;;;15.50;99.90;;;;;;4708450;30;20402;-78
2021/01/07 10:53:03;;;;;;;4.85;1.60;;;15.50;99.90;;;;;;4734534;30;20124;-78
2021/01/07 10:55:30;;;;;;;10.32;2.13;;;15.50;99.90;;;;;;4708553;30;20138;-77
2021/01/07 10:58:20;;;;;;;2.47;1.42;;;15.50;99.90;;;;;;4708999;30;20045;-78
2021/01/07 11:01:14;;;;;;;5.25;1.50;;;15.50;99.90;;;;;;4709036;30;20055;-77
2021/01/07 11:04:02;;;;;;;4.90;2.50;;;15.50;99.90;;;;;;4708997;30;20036;-77
2021/01/07 11:06:34;;;;;;;10.57;2.28;;;15.50;99.90;;;;;;4723404;30;20049;-78
2021/01/07 11:09:30;;;;;;;5.53;1.80;;;15.50;99.90;;;;;;4709104;30;20029;-79
2021/01/07 11:12:05;;;;;;;7.10;2.70;;;15.50;99.90;;;;;;4710326;30;20144;-79
2021/01/07 11:14:36;;;;;;;5.72;1.73;;;15.50;99.90;;;;;;4734282;30;20060;-78
2021/01/07 11:17:11;;;;;;;6.93;2.45;;;15.50;99.90;;;;;;4709419;30;20049;-78
2021/01/07 11:19:40;;;;;;;5.50;1.83;;;15.50;99.90;;;;;;4709002;30;20041;-79
2021/01/07 11:22:18;;;;;;;4.43;2.05;;;15.40;99.90;;;;;;4734262;30;20037;-79
2021/01/07 11:24:48;;;;;;;5.05;1.70;;;15.50;99.90;;;;;;4711601;30;20124;-78
2021/01/07 11:27:15;;;;;;;8.27;3.70;;;15.40;99.90;;;;;;4707047;30;20076;-79
2021/01/07 11:29:41;;;;;;;9.23;3.25;;;15.40;99.90;;;;;;4711873;30;20037;-80
2021/01/07 11:32:07;;;;;;;13.77;3.65;;;15.40;99.90;;;;;;4706527;30;20033;-79
2021/01/07 11:34:34;;;;;;;5.53;3.15;;;15.50;99.90;;;;;;4708262;30;20034;-77
2021/01/07 11:37:19;;;;;;;7.35;3.13;;;15.40;99.90;;;;;;4704527;30;20495;-78
2021/01/07 11:39:57;;;;;;;7.40;2.55;;;15.40;99.90;;;;;;4707030;30;20407;-77
2021/01/07 11:42:41;;;;;;;7.95;2.95;;;15.50;99.90;;;;;;4706932;30;20123;-77
2021/01/07 11:45:25;;;;;;;8.25;2.38;;;15.60;99.90;;;;;;4709044;30;20043;-79
2021/01/07 11:47:57;;;;;;;7.57;2.70;;;15.60;99.90;;;;;;4705562;30;20037;-78
2021/01/07 11:50:29;;;;;;;6.85;2.70;;;15.70;99.90;;;;;;4706465;30;20567;-77
2021/01/07 11:52:56;;;;;;;6.18;2.25;;;15.60;99.90;;;;;;4706390;30;20123;-78
2021/01/07 11:55:22;;;;;;;8.00;2.90;;;15.70;99.90;;;;;;4708236;30;20483;-79
2021/01/07 11:57:50;;;;;;;11.45;3.10;;;15.70;99.90;;;;;;4709380;30;20045;-77
2021/01/07 12:00:18;;;;;;;7.55;2.60;;;15.60;99.90;;;;;;4701949;30;20052;-78
2021/01/07 12:02:47;;;;;;;10.82;3.95;;;15.50;99.90;;;;;;4707636;30;20124;-77
2021/01/07 12:05:24;;;;;;;9.57;3.97;;;15.50;99.90;;;;;;4704488;30;20068;-77
2021/01/07 12:08:02;;;;;;;7.50;2.72;;;15.50;99.90;;;;;;4709325;30;20041;-75
2021/01/07 12:10:33;;;;;;;7.30;2.78;;;15.40;99.90;;;;;;4710974;30;20037;-75
2021/01/07 12:13:05;;;;;;;5.22;3.08;;;15.40;99.90;;;;;;4708233;30;20552;-75
2021/01/07 12:15:34;;;;;;;10.10;5.20;;;15.40;99.90;;;;;;4706500;30;20042;-78
2021/01/07 12:18:03;;;;;;;15.55;6.32;;;15.50;99.90;;;;;;4711551;30;20403;-79
2021/01/07 12:20:35;;;;;;;12.00;5.15;;;15.50;99.90;;;;;;4705072;30;20400;-77
2021/01/07 12:23:02;;;;;;;7.97;3.63;;;15.50;99.90;;;;;;4708349;30;20497;-76
2021/01/07 12:25:28;;;;;;;8.73;2.92;;;15.60;99.90;;;;;;4707231;30;20076;-78
2021/01/07 12:27:54;;;;;;;7.57;2.85;;;15.60;99.90;;;;;;4703697;30;20065;-79
2021/01/07 12:30:21;;;;;;;16.35;3.55;;;15.60;99.90;;;;;;4705165;30;20036;-78
2021/01/07 12:33:08;;;;;;;7.88;3.10;;;15.60;99.90;;;;;;4709526;30;20042;-79
2021/01/07 12:35:36;;;;;;;6.15;3.03;;;15.60;99.90;;;;;;4722502;30;20121;-79
2021/01/07 12:38:17;;;;;;;13.20;4.13;;;15.60;99.90;;;;;;4706632;30;20037;-78
2021/01/07 12:40:54;;;;;;;7.65;4.05;;;15.60;99.90;;;;;;4710905;30;20095;-79
2021/01/07 12:43:24;;;;;;;11.43;4.88;;;15.60;99.90;;;;;;4734354;30;20064;-79
2021/01/07 12:45:53;;;;;;;12.25;4.40;;;15.50;99.90;;;;;;4703848;30;20029;-78
2021/01/07 12:48:22;;;;;;;13.48;4.88;;;15.50;99.90;;;;;;4730709;30;20033;-78
2021/01/07 12:50:51;;;;;;;12.27;5.30;;;15.50;99.90;;;;;;4707469;30;20044;-78
2021/01/07 12:53:17;;;;;;;13.05;4.25;;;15.50;99.90;;;;;;4709617;30;20060;-79
2021/01/07 12:55:43;;;;;;;11.43;4.97;;;15.50;99.90;;;;;;4708911;30;20033;-79
2021/01/07 12:58:19;;;;;;;16.55;5.20;;;15.50;99.90;;;;;;4710226;30;20045;-78
2021/01/07 13:01:03;;;;;;;14.93;5.47;;;15.50;99.90;;;;;;4707726;30;20116;-79
2021/01/07 13:03:50;;;;;;;8.68;4.57;;;15.50;99.90;;;;;;4707050;30;20038;-78
2021/01/07 13:06:25;;;;;;;6.82;3.45;;;15.50;99.90;;;;;;4721556;30;20037;-78
2021/01/07 13:08:54;;;;;;;11.52;5.88;;;15.50;99.90;;;;;;4707982;30;20033;-77
2021/01/07 13:11:21;;;;;;;18.88;7.38;;;15.60;99.90;;;;;;4705059;30;20412;-78
2021/01/07 13:13:52;;;;;;;10.48;4.38;;;15.60;99.90;;;;;;4706549;30;20044;-78
2021/01/07 13:16:18;;;;;;;17.55;6.65;;;15.60;99.90;;;;;;4708440;30;20044;-78
2021/01/07 13:18:45;;;;;;;30.08;15.30;;;15.60;99.90;;;;;;4707826;30;20625;-79
2021/01/07 13:21:12;;;;;;;31.98;14.30;;;15.60;99.90;;;;;;4707032;30;20029;-80
2021/01/07 13:23:38;;;;;;;20.73;11.15;;;15.60;99.90;;;;;;4706725;30;20147;-79
2021/01/07 13:26:07;;;;;;;19.48;10.65;;;15.50;99.90;;;;;;4705144;30;20036;-79
2021/01/07 13:28:40;;;;;;;25.42;9.85;;;15.50;99.90;;;;;;4707943;30;20044;-79
2021/01/07 13:31:06;;;;;;;;;;;15.40;99.90;;;;;;4706217;30;20416;-79
2021/01/07 13:33:32;;;;;;;15.27;6.20;;;15.40;99.90;;;;;;4707872;30;19915;-79
2021/01/07 13:36:00;;;;;;;23.67;11.98;;;15.40;99.90;;;;;;4707767;30;20041;-79
2021/01/07 13:38:28;;;;;;;26.17;15.32;;;15.30;99.90;;;;;;4706306;30;20037;-79
2021/01/07 13:41:01;;;;;;;27.90;15.07;;;15.30;99.90;;;;;;4705602;30;20108;-79
2021/01/07 13:43:29;;;;;;;28.05;15.57;;;15.30;99.90;;;;;;4704637;30;20030;-79
2021/01/07 13:45:59;;;;;;;23.33;16.30;;;15.30;99.90;;;;;;4705156;30;20029;-79
2021/01/07 13:48:28;;;;;;;24.90;14.13;;;15.30;99.90;;;;;;4707817;30;20539;-79
2021/01/07 13:50:57;;;;;;;40.35;17.63;;;15.30;99.90;;;;;;4706331;30;20810;-79
2021/01/07 13:53:23;;;;;;;25.55;15.50;;;15.30;99.90;;;;;;4704271;30;20464;-79
2021/01/07 13:55:51;;;;;;;63.22;34.65;;;15.30;99.90;;;;;;4706182;30;20040;-79
2021/01/07 13:58:21;;;;;;;83.22;43.28;;;15.30;99.90;;;;;;4707324;30;20052;-79
2021/01/07 14:00:47;;;;;;;45.60;26.50;;;15.30;99.90;;;;;;4704829;30;20091;-79
2021/01/07 14:03:15;;;;;;;23.67;12.77;;;15.40;99.90;;;;;;4701698;30;20033;-79
2021/01/07 14:05:43;;;;;;;12.95;6.57;;;15.40;99.90;;;;;;4704697;30;20874;-81
2021/01/07 14:08:34;;;;;;;18.77;8.63;;;15.40;99.90;;;;;;4696365;30;20446;-80
2021/01/07 14:11:04;;;;;;;18.08;8.85;;;15.40;99.90;;;;;;4708635;30;20043;-79
2021/01/07 14:13:32;;;;;;;18.38;10.05;;;15.40;99.90;;;;;;4718970;30;20069;-79
2021/01/07 14:15:59;;;;;;;19.95;9.70;;;15.30;99.90;;;;;;4719317;30;20052;-79
2021/01/07 14:18:27;;;;;;;28.20;12.20;;;15.30;99.90;;;;;;4708862;30;20049;-79
2021/01/07 14:20:56;;;;;;;24.77;11.98;;;15.30;99.90;;;;;;4707389;30;20085;-79
2021/01/07 14:23:23;;;;;;;15.73;7.72;;;15.20;99.90;;;;;;4702822;30;20125;-79
2021/01/07 14:25:54;;;;;;;13.90;7.53;;;15.20;99.90;;;;;;4705462;30;20041;-78
2021/01/07 14:28:28;;;;;;;18.38;7.78;;;15.20;99.90;;;;;;4707275;30;20116;-78
2021/01/07 14:30:54;;;;;;;21.05;7.40;;;15.10;99.90;;;;;;4705567;30;20037;-78
2021/01/07 14:33:23;;;;;;;9.75;5.63;;;15.10;99.90;;;;;;4707276;30;20116;-78
2021/01/07 14:35:53;;;;;;;11.80;5.10;;;15.10;99.90;;;;;;4706729;30;20056;-79
2021/01/07 14:38:19;;;;;;;7.32;3.25;;;15.00;99.90;;;;;;4704887;30;20116;-78
2021/01/07 14:40:46;;;;;;;10.02;3.08;;;15.00;99.90;;;;;;4709808;30;20393;-79
2021/01/07 14:43:12;;;;;;;14.27;3.05;;;14.90;99.90;;;;;;4705551;30;20043;-78
2021/01/07 14:45:44;;;;;;;9.77;4.10;;;14.90;99.90;;;;;;4707710;30;20122;-78
2021/01/07 14:48:12;;;;;;;21.67;8.50;;;14.90;99.90;;;;;;4703496;30;20029;-78
2021/01/07 14:50:42;;;;;;;29.40;10.18;;;14.90;99.90;;;;;;4716026;30;20136;-79
2021/01/07 14:53:19;;;;;;;37.10;16.52;;;14.80;99.90;;;;;;4703224;30;20041;-78
2021/01/07 14:55:46;;;;;;;39.70;16.58;;;14.80;99.90;;;;;;4706095;30;20069;-78
2021/01/07 14:58:35;;;;;;;38.92;17.30;;;14.70;99.90;;;;;;4705722;30;20040;-78
2021/01/07 15:01:11;;;;;;;32.13;16.88;;;14.80;99.90;;;;;;4698186;30;20087;-78
2021/01/07 15:04:01;;;;;;;26.65;14.75;;;14.80;99.90;;;;;;4706991;30;20025;-78
2021/01/07 15:06:40;;;;;;;45.90;18.05;;;14.70;99.90;;;;;;4706240;30;20056;-78
2021/01/07 15:09:16;;;;;;;46.78;21.10;;;14.70;99.90;;;;;;4704867;30;20432;-78
2021/01/07 15:11:49;;;;;;;39.90;18.95;;;14.70;99.90;;;;;;4709502;30;20072;-78
2021/01/07 15:14:25;;;;;;;30.80;14.90;;;14.70;99.90;;;;;;4704897;30;20384;-79
2021/01/07 15:17:17;;;;;;;34.85;15.82;;;14.70;99.90;;;;;;4706206;30;20091;-78
2021/01/07 15:19:53;;;;;;;33.17;13.73;;;14.70;99.90;;;;;;4705839;30;20063;-79
2021/01/07 15:22:58;;;;;;;39.05;14.65;;;14.70;99.90;;;;;;4707342;30;20512;-78
2021/01/07 15:26:00;;;;;;;33.03;15.10;;;14.70;99.90;;;;;;4707475;30;20033;-79
2021/01/07 15:28:49;;;;;;;33.17;16.15;;;14.70;99.90;;;;;;4681509;30;20049;-78
2021/01/07 15:31:36;;;;;;;31.60;15.13;;;14.70;99.90;;;;;;4709591;30;20025;-79
2021/01/07 15:34:12;;;;;;;28.42;13.75;;;14.70;99.90;;;;;;4721204;30;20041;-80
2021/01/07 15:37:10;;;;;;;19.52;9.13;;;14.70;99.90;;;;;;4721538;30;20659;-80
2021/01/07 15:39:51;;;;;;;20.42;8.20;;;14.70;99.90;;;;;;4696963;30;20041;-79
2021/01/07 15:42:35;;;;;;;12.75;5.07;;;14.70;99.90;;;;;;4708377;30;20144;-79
2021/01/07 15:45:37;;;;;;;13.77;5.38;;;14.70;99.90;;;;;;4712414;30;20045;-78
2021/01/07 15:48:31;;;;;;;21.63;6.50;;;14.70;99.90;;;;;;4707740;30;20029;-78
2021/01/07 15:51:13;;;;;;;22.17;7.75;;;14.70;99.90;;;;;;4706144;30;20038;-78
2021/01/07 15:54:28;;;;;;;19.58;7.18;;;14.70;99.90;;;;;;4706178;30;20145;-78
2021/01/07 15:57:16;;;;;;;16.95;5.45;;;14.70;99.90;;;;;;4706634;30;20110;-79
2021/01/07 16:00:04;;;;;;;25.08;8.02;;;14.60;99.90;;;;;;4707833;30;20050;-78
2021/01/07 16:02:32;;;;;;;27.27;7.75;;;14.60;99.90;;;;;;4707848;30;20064;-78
2021/01/07 16:05:06;;;;;;;22.77;7.65;;;14.60;99.90;;;;;;4707013;30;20067;-78
2021/01/07 16:07:38;;;;;;;27.63;7.55;;;14.60;99.90;;;;;;4714941;30;20117;-78
2021/01/07 16:10:07;;;;;;;18.30;6.45;;;14.60;99.90;;;;;;4707846;30;20040;-78
2021/01/07 16:12:34;;;;;;;18.48;6.30;;;14.60;99.90;;;;;;4709044;30;20503;-79
2021/01/07 16:15:01;;;;;;;20.30;5.90;;;14.60;99.90;;;;;;4709889;30;20037;-79
2021/01/07 16:17:28;;;;;;;24.27;6.13;;;14.70;99.90;;;;;;4705961;30;20069;-79
2021/01/07 16:19:56;;;;;;;33.70;7.22;;;14.70;99.90;;;;;;4713911;30;20152;-79
2021/01/07 16:22:40;;;;;;;26.15;7.03;;;14.70;99.90;;;;;;4709723;30;20029;-79
2021/01/07 16:25:10;;;;;;;;;;;14.70;99.90;;;;;;4727348;30;20399;-79
2021/01/07 16:27:49;;;;;;;18.88;6.07;;;14.70;99.90;;;;;;4705244;30;19994;-79
2021/01/07 16:30:18;;;;;;;13.73;5.70;;;14.80;99.90;;;;;;4718589;30;20037;-79
2021/01/07 16:32:47;;;;;;;21.38;5.50;;;14.80;99.90;;;;;;4712301;30;20122;-79
2021/01/07 16:35:14;;;;;;;23.42;6.18;;;14.80;99.90;;;;;;4712262;30;20068;-79
2021/01/07 16:37:41;;;;;;;18.48;4.70;;;14.80;99.90;;;;;;4705572;30;20033;-80
2021/01/07 16:40:09;;;;;;;24.00;5.90;;;14.80;99.90;;;;;;4706525;30;20114;-80
2021/01/07 16:42:36;;;;;;;25.13;5.70;;;14.80;99.90;;;;;;4709636;30;20136;-80
2021/01/07 16:45:04;;;;;;;21.58;5.03;;;14.80;99.90;;;;;;4708607;30;20466;-81
2021/01/07 16:47:31;;;;;;;21.95;5.85;;;14.80;99.90;;;;;;4702248;30;20046;-80
2021/01/07 16:49:58;;;;;;;15.65;5.13;;;14.80;99.90;;;;;;4706816;30;20029;-79
2021/01/07 16:52:25;;;;;;;23.88;6.97;;;14.80;99.90;;;;;;4703311;30;20385;-77
2021/01/07 16:54:51;;;;;;;17.95;5.78;;;14.80;99.90;;;;;;4714426;30;20041;-77
2021/01/07 16:57:17;;;;;;;25.90;4.60;;;14.80;99.90;;;;;;4705863;30;20443;-77
2021/01/07 16:59:43;;;;;;;21.52;6.13;;;14.80;99.90;;;;;;4713866;30;20396;-77
2021/01/07 17:02:14;;;;;;;17.02;5.00;;;14.80;99.90;;;;;;4714331;30;20025;-74
2021/01/07 17:04:41;;;;;;;19.33;5.50;;;14.70;99.90;;;;;;4713739;30;20048;-76
2021/01/07 17:07:19;;;;;;;14.48;5.32;;;14.70;99.90;;;;;;4710369;30;20047;-76
2021/01/07 17:09:48;;;;;;;22.67;6.25;;;14.70;99.90;;;;;;4702085;30;20033;-76
2021/01/07 17:12:16;;;;;;;22.80;6.03;;;14.70;99.90;;;;;;4703391;30;20041;-76
2021/01/07 17:14:43;;;;;;;18.58;5.38;;;14.70;99.90;;;;;;4702231;30;20080;-76
2021/01/07 17:17:09;;;;;;;22.05;5.90;;;14.80;99.90;;;;;;4705172;30;20048;-75
2021/01/07 17:19:36;;;;;;;21.20;5.75;;;14.80;99.90;;;;;;4707037;30;20052;-78
2021/01/07 17:22:04;;;;;;;23.73;6.15;;;14.80;99.90;;;;;;4724464;30;20033;-78
2021/01/07 17:24:30;;;;;;;33.40;5.95;;;14.80;99.90;;;;;;4709467;30;20400;-79
2021/01/07 17:27:01;;;;;;;22.23;6.03;;;14.70;99.90;;;;;;4704677;30;20487;-78
2021/01/07 17:29:31;;;;;;;29.63;7.38;;;14.70;99.90;;;;;;4704609;30;20111;-78
2021/01/07 17:31:58;;;;;;;20.48;7.30;;;14.70;99.90;;;;;;4709650;30;20033;-79
2021/01/07 17:34:25;;;;;;;33.35;8.63;;;14.70;99.90;;;;;;4704392;30;20042;-79
2021/01/07 17:36:54;;;;;;;24.70;8.55;;;14.70;99.90;;;;;;4707398;30;20037;-78
2021/01/07 17:39:20;;;;;;;27.30;8.25;;;14.70;99.90;;;;;;4704772;30;20476;-78
2021/01/07 17:41:47;;;;;;;17.55;6.15;;;14.70;99.90;;;;;;4706807;30;20068;-77
2021/01/07 17:44:13;;;;;;;19.08;6.70;;;14.70;99.90;;;;;;4706002;30;20033;-78
2021/01/07 17:46:39;;;;;;;24.55;5.03;;;14.70;99.90;;;;;;4702839;30;20376;-79
2021/01/07 17:49:06;;;;;;;24.10;5.40;;;14.70;99.90;;;;;;4707451;30;20049;-80
2021/01/07 17:51:39;;;;;;;38.42;7.50;;;14.70;99.90;;;;;;4734537;30;20493;-78
2021/01/07 17:54:06;;;;;;;20.65;5.70;;;14.60;99.90;;;;;;4700870;30;20033;-79
2021/01/07 17:56:32;;;;;;;18.10;5.40;;;14.60;99.90;;;;;;4706581;30;20376;-79
2021/01/07 17:58:59;;;;;;;21.25;6.28;;;14.60;99.90;;;;;;4700715;30;20103;-78
2021/01/07 18:01:30;;;;;;;27.20;5.88;;;14.60;99.90;;;;;;4708435;30;20061;-79
2021/01/07 18:04:00;;;;;;;21.02;5.55;;;14.60;99.90;;;;;;4706562;30;20050;-79
2021/01/07 18:06:35;;;;;;;20.00;5.93;;;14.60;99.90;;;;;;4704857;30;20032;-79
2021/01/07 18:09:06;;;;;;;21.60;4.80;;;14.60;99.90;;;;;;4704287;30;20037;-78
2021/01/07 18:11:32;;;;;;;23.27;6.65;;;14.60;99.90;;;;;;4704015;30;20046;-79
2021/01/07 18:13:58;;;;;;;29.70;6.18;;;14.70;99.90;;;;;;4701225;30;20560;-77
2021/01/07 18:16:24;;;;;;;26.67;5.18;;;14.60;99.90;;;;;;4704900;30;20025;-77
2021/01/07 18:18:51;;;;;;;26.42;6.25;;;14.60;99.90;;;;;;4707366;30;20066;-78
2021/01/07 18:21:17;;;;;;;28.25;5.65;;;14.60;99.90;;;;;;4706242;30;20048;-78
2021/01/07 18:23:43;;;;;;;22.88;5.03;;;14.60;99.90;;;;;;4708255;30;20033;-77
2021/01/07 18:26:11;;;;;;;20.08;5.25;;;14.60;99.90;;;;;;4706089;30;20134;-78
2021/01/07 18:28:38;;;;;;;31.35;6.20;;;14.60;99.90;;;;;;4707588;30;20442;-78
2021/01/07 18:31:08;;;;;;;21.48;5.18;;;14.70;99.90;;;;;;4710984;30;20029;-79
2021/01/07 18:33:37;;;;;;;20.90;5.95;;;14.70;99.90;;;;;;4711653;30;20095;-78
2021/01/07 18:36:05;;;;;;;26.58;6.28;;;14.70;99.90;;;;;;4705131;30;20043;-77
2021/01/07 18:38:33;;;;;;;12.57;4.47;;;14.70;99.90;;;;;;4705473;30;20048;-77
2021/01/07 18:40:59;;;;;;;24.55;6.30;;;14.60;99.90;;;;;;4705419;30;20049;-78
2021/01/07 18:43:26;;;;;;;23.30;6.25;;;14.70;99.90;;;;;;4706625;30;20064;-79
2021/01/07 18:45:52;;;;;;;19.80;5.00;;;14.60;99.90;;;;;;4705686;30;20052;-77
2021/01/07 18:48:19;;;;;;;20.85;6.63;;;14.70;99.90;;;;;;4709028;30;20484;-78
2021/01/07 18:50:45;;;;;;;18.27;5.68;;;14.60;99.90;;;;;;4707769;30;20477;-77
2021/01/07 18:53:11;;;;;;;16.67;5.05;;;14.70;99.90;;;;;;4705972;30;20029;-81
2021/01/07 18:55:37;;;;;;;19.90;5.10;;;14.70;99.90;;;;;;4706770;30;20518;-79
2021/01/07 18:58:04;;;;;;;24.05;5.30;;;14.70;99.90;;;;;;4705739;30;20132;-79
2021/01/07 19:00:30;;;;;;;26.90;7.50;;;14.70;99.90;;;;;;4710379;30;20049;-79
2021/01/07 19:02:56;;;;;;;13.75;5.70;;;14.70;99.90;;;;;;4707935;30;20107;-78
2021/01/07 19:05:22;;;;;;;17.15;4.90;;;14.60;99.90;;;;;;4708991;30;20112;-78
2021/01/07 19:07:48;;;;;;;22.85;6.75;;;14.60;99.90;;;;;;4709436;30;20033;-81
2021/01/07 19:10:14;;;;;;;27.05;4.90;;;14.60;99.90;;;;;;4710643;30;20464;-82
2021/01/07 19:12:40;;;;;;;26.63;6.35;;;14.60;99.90;;;;;;4715035;30;20037;-81
2021/01/07 19:15:07;;;;;;;32.00;6.15;;;14.60;99.90;;;;;;4713780;30;20044;-78
2021/01/07 19:17:36;;;;;;;25.13;5.60;;;14.60;99.90;;;;;;4710613;30;20049;-81
2021/01/07 19:20:07;;;;;;;23.85;7.10;;;14.60;99.90;;;;;;4708903;30;20372;-81
2021/01/07 19:22:34;;;;;;;25.63;5.30;;;14.60;99.90;;;;;;4696049;30;20095;-81
2021/01/07 19:25:00;;;;;;;17.70;5.13;;;14.60;99.90;;;;;;4693708;30;20038;-81
2021/01/07 19:27:27;;;;;;;24.08;6.00;;;14.60;99.90;;;;;;4713175;30;20029;-80
2021/01/07 19:29:53;;;;;;;26.70;6.80;;;14.60;99.90;;;;;;4705018;30;20454;-81
2021/01/07 19:32:20;;;;;;;26.27;6.05;;;14.60;99.90;;;;;;4707578;30;20295;-80
2021/01/07 19:34:46;;;;;;;24.45;5.70;;;14.60;99.90;;;;;;4710009;30;20037;-79
2021/01/07 19:37:12;;;;;;;24.17;6.10;;;14.60;99.90;;;;;;4712049;30;20041;-80
2021/01/07 19:39:38;;;;;;;38.95;6.57;;;14.60;99.90;;;;;;4710989;30;20049;-81
2021/01/07 19:42:05;;;;;;;27.67;8.30;;;14.60;99.90;;;;;;4708521;30;20060;-80
2021/01/07 19:44:32;;;;;;;17.48;6.32;;;14.60;99.90;;;;;;4710309;30;20107;-81
2021/01/07 19:46:59;;;;;;;24.65;6.53;;;14.60;99.90;;;;;;4697979;30;20033;-81
2021/01/07 19:49:25;;;;;;;30.17;5.13;;;14.60;99.90;;;;;;4706065;30;20124;-81
2021/01/07 19:51:51;;;;;;;18.13;5.22;;;14.60;99.90;;;;;;4713355;30;20135;-81
2021/01/07 19:54:18;;;;;;;24.02;5.90;;;14.60;99.90;;;;;;4706717;30;20038;-80
2021/01/07 19:56:48;;;;;;;20.35;5.00;;;14.60;99.90;;;;;;4717009;30;20029;-80
2021/01/07 19:59:15;;;;;;;30.95;7.38;;;14.60;99.90;;;;;;4708486;30;20518;-81
2021/01/07 20:01:43;;;;;;;29.23;5.95;;;14.60;99.90;;;;;;4710431;30;20041;-80
2021/01/07 20:04:12;;;;;;;28.88;7.72;;;14.60;99.90;;;;;;4706994;30;20097;-80
2021/01/07 20:06:45;;;;;;;28.23;6.07;;;14.70;99.90;;;;;;4710478;30;20441;-80
2021/01/07 20:09:11;;;;;;;45.33;5.68;;;14.70;99.90;;;;;;4702530;30;20097;-80
2021/01/07 20:11:38;;;;;;;20.75;4.78;;;14.70;99.90;;;;;;4692346;30;20446;-80
2021/01/07 20:14:05;;;;;;;28.20;7.57;;;14.70;99.90;;;;;;4734665;30;20043;-81
2021/01/07 20:16:38;;;;;;;22.48;6.78;;;14.70;99.90;;;;;;4707894;30;20037;-80
2021/01/07 20:19:09;;;;;;;25.88;6.57;;;14.70;99.90;;;;;;4707221;30;20037;-80
2021/01/07 20:21:37;;;;;;;20.20;5.50;;;14.70;99.90;;;;;;4693336;30;20668;-80
2021/01/07 20:24:03;;;;;;;24.30;6.00;;;14.70;99.90;;;;;;4705501;30;20061;-80
2021/01/07 20:26:30;;;;;;;27.85;6.13;;;14.70;99.90;;;;;;4704388;30;20044;-80
2021/01/07 20:28:56;;;;;;;31.08;6.50;;;14.70;99.90;;;;;;4710373;30;20090;-79
2021/01/07 20:31:25;;;;;;;21.77;6.25;;;14.70;99.90;;;;;;4711899;30;20626;-81
2021/01/07 20:33:51;;;;;;;21.63;5.18;;;14.80;99.90;;;;;;4711180;30;20033;-81
2021/01/07 20:36:17;;;;;;;26.17;6.65;;;14.70;99.90;;;;;;4705654;30;20538;-80
2021/01/07 20:38:43;;;;;;;20.13;6.25;;;14.70;99.90;;;;;;4718639;30;20037;-79